Time;durP1;ratioP1;P1;durP2;ratioP2;P2;SDS_P1;SDS_P2;PMS_P1;PMS_P2;Temp;Humidity;BMP_temperature;BMP_pressure;BME280_temperature;BME280_humidity;BME280_pressure;Samples;Min_cycle;Max_cycle;Signal;HPM_P1;HPM_P2
2023/12/07 00:02:03;;;;;;;20.77;13.40;;;;;;;15.91;47.97;102076.38;5030137;28;20049;-38
2023/12/07 00:04:30;;;;;;;20.45;12.63;;;;;;;15.93;47.65;102074.47;5031738;28;20394;-38
2023/12/07 00:06:56;;;;;;;19.00;11.98;;;;;;;15.94;48.11;102070.81;5024864;28;20054;-38
2023/12/07 00:09:23;;;;;;;19.42;12.43;;;;;;;15.97;47.49;102070.59;5026650;28;20061;-38
2023/12/07 00:11:50;;;;;;;18.58;12.20;;;;;;;15.98;47.29;102071.44;5026983;28;20047;-38
2023/12/07 00:14:17;;;;;;;21.30;12.30;;;;;;;15.97;47.99;102067.09;5022206;28;20279;-38
2023/12/07 00:16:43;;;;;;;17.45;11.63;;;;;;;15.97;47.39;102062.59;5025885;28;20053;-38
2023/12/07 00:19:10;;;;;;;18.42;11.55;;;;;;;15.97;47.77;102051.88;5032996;28;20130;-38
2023/12/07 00:21:36;;;;;;;18.38;11.98;;;;;;;15.98;47.92;102060.75;5030834;28;20487;-37
2023/12/07 00:24:03;;;;;;;16.80;11.65;;;;;;;16.00;47.55;102061.50;5030658;28;20053;-38
2023/12/07 00:26:30;;;;;;;17.40;10.80;;;;;;;15.98;47.20;102053.59;5034111;28;20147;-38
2023/12/07 00:28:56;;;;;;;18.20;11.73;;;;;;;15.96;48.17;102051.97;5033663;28;20093;-38
2023/12/07 00:31:23;;;;;;;16.58;10.80;;;;;;;15.94;47.11;102053.94;5030095;28;20056;-37
2023/12/07 00:33:49;;;;;;;15.93;10.48;;;;;;;15.90;47.99;102050.63;5033637;28;20269;-38
2023/12/07 00:36:16;;;;;;;17.85;11.10;;;;;;;15.87;47.71;102048.16;5027829;28;20057;-38
2023/12/07 00:38:43;;;;;;;16.33;10.93;;;;;;;15.82;48.10;102054.81;5033635;28;20048;-38
2023/12/07 00:41:09;;;;;;;15.57;10.27;;;;;;;15.74;47.01;102048.19;5034674;28;20388;-38
2023/12/07 00:43:36;;;;;;;16.17;9.82;;;;;;;15.67;48.15;102046.91;5032629;28;20265;-37
2023/12/07 00:46:03;;;;;;;14.60;10.10;;;;;;;15.58;47.15;102044.84;5038089;28;20064;-37
2023/12/07 00:48:29;;;;;;;16.48;10.68;;;;;;;15.50;48.54;102053.41;5033608;28;20064;-37
2023/12/07 00:50:56;;;;;;;14.85;9.65;;;;;;;15.51;48.66;102048.91;5023869;28;20049;-38
2023/12/07 00:53:23;;;;;;;14.00;9.88;;;;;;;15.58;48.80;102049.34;5035410;28;20072;-38
2023/12/07 00:55:49;;;;;;;15.20;9.70;;;;;;;15.64;47.84;102049.78;5036231;28;20049;-38
2023/12/07 00:58:16;;;;;;;12.52;8.85;;;;;;;15.71;48.02;102048.38;5034276;28;20460;-38
2023/12/07 01:00:42;;;;;;;15.02;9.50;;;;;;;15.78;48.21;102051.50;5028824;28;20049;-38
2023/12/07 01:03:09;;;;;;;13.05;9.10;;;;;;;15.84;47.74;102056.41;5036414;28;20049;-38
2023/12/07 01:05:36;;;;;;;14.48;8.85;;;;;;;15.90;47.42;102063.13;5033440;28;20155;-38
2023/12/07 01:08:03;;;;;;;12.85;8.38;;;;;;;15.96;47.64;102062.69;5032007;28;20084;-38
2023/12/07 01:10:29;;;;;;;14.98;9.68;;;;;;;16.01;48.29;102065.91;5033897;28;20130;-38
2023/12/07 01:12:56;;;;;;;13.75;9.23;;;;;;;16.07;47.64;102061.91;5038242;28;20084;-38
2023/12/07 01:15:23;;;;;;;14.10;9.23;;;;;;;16.09;47.61;102068.88;5034233;28;20063;-37
2023/12/07 01:17:49;;;;;;;12.40;8.93;;;;;;;16.12;47.92;102065.09;5033080;28;20065;-39
2023/12/07 01:20:17;;;;;;;11.32;8.18;;;;;;;16.13;47.96;102065.00;5029478;28;20128;-38
2023/12/07 01:22:45;;;;;;;12.13;8.43;;;;;;;16.14;46.99;102061.34;5030912;28;20448;-38
2023/12/07 01:25:16;;;;;;;12.00;7.50;;;;;;;16.14;46.67;102064.03;5032059;28;20088;-38
2023/12/07 01:27:44;;;;;;;12.13;8.02;;;;;;;16.15;47.75;102067.56;5036947;28;20049;-38
2023/12/07 01:30:10;;;;;;;12.13;7.95;;;;;;;16.14;47.00;102071.22;5034215;28;20107;-38
2023/12/07 01:32:37;;;;;;;13.70;8.65;;;;;;;16.14;47.12;102071.22;5035253;28;20310;-38
2023/12/07 01:35:04;;;;;;;11.90;7.75;;;;;;;16.14;47.66;102065.84;5032968;28;20089;-38
2023/12/07 01:37:31;;;;;;;12.07;8.05;;;;;;;16.13;47.56;102072.19;5035846;28;20049;-38
2023/12/07 01:39:57;;;;;;;12.10;7.85;;;;;;;16.14;47.70;102073.88;5032809;28;20128;-37
2023/12/07 01:42:24;;;;;;;11.85;7.40;;;;;;;16.14;46.61;102073.88;5032250;28;20060;-37
2023/12/07 01:44:51;;;;;;;9.82;7.18;;;;;;;16.14;47.72;102077.41;5033063;28;20048;-38
2023/12/07 01:47:18;;;;;;;11.43;7.00;;;;;;;16.14;47.54;102072.06;5035753;28;20050;-38
2023/12/07 01:49:46;;;;;;;11.07;7.32;;;;;;;16.13;47.47;102067.69;5026622;28;20072;-38
2023/12/07 01:52:13;;;;;;;10.18;7.00;;;;;;;16.13;47.18;102070.34;5034475;28;20132;-37
2023/12/07 01:54:40;;;;;;;10.93;7.32;;;;;;;16.12;46.86;102071.31;5034385;28;20048;-38
2023/12/07 01:57:07;;;;;;;10.60;7.03;;;;;;;16.12;47.28;102075.78;5032973;28;20342;-38
2023/12/07 01:59:34;;;;;;;11.32;7.07;;;;;;;16.13;46.49;102070.34;5027144;28;20732;-38
2023/12/07 02:02:00;;;;;;;11.20;7.25;;;;;;;16.15;47.20;102070.22;5030973;28;20109;-38
2023/12/07 02:04:27;;;;;;;11.30;6.90;;;;;;;16.17;46.89;102073.66;5032926;28;20425;-38
2023/12/07 02:06:58;;;;;;;11.77;7.63;;;;;;;16.19;47.50;102075.25;5036838;28;20045;-38
2023/12/07 02:09:24;;;;;;;10.10;6.80;;;;;;;16.23;47.37;102068.72;5034630;28;20096;-38
2023/12/07 02:11:51;;;;;;;8.13;6.22;;;;;;;16.26;46.36;102081.88;5032206;28;20076;-38
2023/12/07 02:14:18;;;;;;;11.15;6.80;;;;;;;16.29;46.57;102070.94;5032818;28;20079;-38
2023/12/07 02:16:57;;;;;;;8.73;5.85;;;;;;;16.33;46.70;102070.72;5031708;28;20049;-38
2023/12/07 02:19:36;;;;;;;10.93;6.88;;;;;;;16.36;46.01;102070.47;5032458;28;20290;-38
2023/12/07 02:22:12;;;;;;;9.73;6.43;;;;;;;16.38;46.81;102071.25;5029838;28;20308;-38
2023/12/07 02:24:47;;;;;;;9.57;6.35;;;;;;;16.40;46.24;102077.31;5032205;28;20132;-38
2023/12/07 02:27:14;;;;;;;8.02;5.63;;;;;;;16.40;46.94;102072.84;5031799;28;20429;-38
2023/12/07 02:29:41;;;;;;;8.63;5.90;;;;;;;16.38;46.71;102066.75;5031552;28;20095;-38
2023/12/07 02:32:07;;;;;;;8.52;5.80;;;;;;;16.37;46.91;102073.06;5028748;28;20046;-38
2023/12/07 02:34:34;;;;;;;9.73;6.07;;;;;;;16.35;46.66;102063.44;5032330;28;20061;-38
2023/12/07 02:37:03;;;;;;;7.63;5.32;;;;;;;16.33;46.63;102060.03;5030045;28;20053;-38
2023/12/07 02:39:30;;;;;;;9.07;6.25;;;;;;;16.30;47.01;102058.41;5029606;28;20053;-38
2023/12/07 02:41:57;;;;;;;8.45;5.25;;;;;;;16.28;46.95;102061.22;5032237;28;20452;-38
2023/12/07 02:44:24;;;;;;;7.80;5.35;;;;;;;16.26;47.23;102057.78;5028197;28;20492;-38
2023/12/07 02:46:50;;;;;;;8.38;5.70;;;;;;;16.23;46.95;102055.31;5032147;28;20076;-38
2023/12/07 02:49:17;;;;;;;9.25;5.43;;;;;;;16.22;47.09;102050.09;5030840;28;20380;-38
2023/12/07 02:51:44;;;;;;;8.35;5.80;;;;;;;16.21;46.35;102067.13;5033490;28;20449;-38
2023/12/07 02:54:10;;;;;;;7.50;5.63;;;;;;;16.18;46.23;102067.34;5033033;28;20214;-38
2023/12/07 02:56:37;;;;;;;7.15;4.75;;;;;;;16.17;46.87;102071.00;5026775;28;20446;-38
2023/12/07 02:59:03;;;;;;;6.85;5.20;;;;;;;16.14;47.38;102064.03;5033278;28;20049;-38
2023/12/07 03:01:30;;;;;;;7.40;5.35;;;;;;;16.13;47.14;102059.66;5026562;28;20677;-38
2023/12/07 03:03:57;;;;;;;6.72;4.75;;;;;;;16.11;46.16;102066.91;5028571;28;20429;-38
2023/12/07 03:06:24;;;;;;;7.80;5.32;;;;;;;16.11;46.24;102069.59;5031837;28;20107;-38
2023/12/07 03:08:50;;;;;;;8.25;5.00;;;;;;;16.12;46.25;102067.78;5034670;28;20077;-38
2023/12/07 03:11:17;;;;;;;7.20;4.63;;;;;;;16.12;46.61;102068.66;5027457;28;20042;-38
2023/12/07 03:13:43;;;;;;;8.40;5.35;;;;;;;16.13;46.88;102073.03;5027904;28;20575;-38
2023/12/07 03:16:10;;;;;;;8.68;5.15;;;;;;;16.15;46.56;102070.22;5030507;28;20110;-38
2023/12/07 03:18:37;;;;;;;6.97;5.03;;;;;;;16.18;46.50;102073.53;5033842;28;20053;-38
2023/12/07 03:21:04;;;;;;;5.63;4.35;;;;;;;16.20;46.48;102081.44;5030086;28;20143;-38
2023/12/07 03:23:30;;;;;;;7.00;4.40;;;;;;;16.22;47.18;102083.06;5029164;28;20152;-38
2023/12/07 03:25:57;;;;;;;6.63;4.43;;;;;;;16.25;46.93;102084.66;5032070;28;20099;-38
2023/12/07 03:28:24;;;;;;;7.13;4.63;;;;;;;16.27;46.19;102080.03;5029975;28;20084;-38
2023/12/07 03:30:50;;;;;;;5.10;4.60;;;;;;;16.28;46.15;102082.63;5032755;28;20057;-38
2023/12/07 03:33:17;;;;;;;6.65;4.90;;;;;;;16.29;46.90;102078.97;5036707;28;20062;-38
2023/12/07 03:35:44;;;;;;;7.93;4.40;;;;;;;16.29;46.73;102078.13;5019895;28;20119;-38
2023/12/07 03:38:10;;;;;;;7.25;4.30;;;;;;;16.26;46.37;102073.84;5030042;28;20390;-38
2023/12/07 03:40:37;;;;;;;5.50;4.20;;;;;;;16.26;45.87;102078.34;5028453;28;20073;-38
2023/12/07 03:43:04;;;;;;;5.55;3.97;;;;;;;16.25;46.27;102090.00;5032358;28;20048;-38
2023/12/07 03:45:31;;;;;;;6.43;4.35;;;;;;;16.24;45.89;102077.56;5027897;28;20349;-37
2023/12/07 03:47:58;;;;;;;5.60;4.05;;;;;;;16.21;46.79;102086.69;5029524;28;20464;-38
2023/12/07 03:50:25;;;;;;;6.30;4.10;;;;;;;16.20;46.72;102090.34;5029169;28;20129;-38
2023/12/07 03:52:51;;;;;;;6.45;4.32;;;;;;;16.18;46.13;102078.91;5031144;28;20045;-38
2023/12/07 03:55:18;;;;;;;5.85;4.32;;;;;;;16.16;47.13;102078.16;5031501;28;20049;-38
2023/12/07 03:57:45;;;;;;;5.30;4.00;;;;;;;16.14;46.29;102074.72;5030387;28;20056;-37
2023/12/07 04:00:12;;;;;;;6.60;4.40;;;;;;;16.13;46.45;102072.19;5025726;28;20052;-38
2023/12/07 04:02:39;;;;;;;4.75;3.60;;;;;;;16.10;47.04;102075.91;5029560;28;20041;-38
2023/12/07 04:05:06;;;;;;;5.65;4.35;;;;;;;16.11;47.20;102071.41;5030457;28;20375;-38
2023/12/07 04:07:33;;;;;;;6.10;3.90;;;;;;;16.09;46.81;102076.03;5032118;28;20409;-38
2023/12/07 04:09:59;;;;;;;6.30;3.88;;;;;;;16.08;46.44;102085.88;5029606;28;20136;-38
2023/12/07 04:12:26;;;;;;;6.38;4.35;;;;;;;16.10;46.76;102077.75;5034864;28;20049;-38
2023/12/07 04:14:53;;;;;;;4.85;3.50;;;;;;;16.10;46.88;102073.25;5030055;28;20094;-38
2023/12/07 04:17:20;;;;;;;5.15;3.50;;;;;;;16.12;46.11;102074.00;5031205;28;20111;-38
2023/12/07 04:19:47;;;;;;;5.43;3.97;;;;;;;16.14;46.88;102071.22;5035158;28;20049;-38
2023/12/07 04:22:13;;;;;;;5.35;3.80;;;;;;;16.16;46.26;102078.16;5028912;28;20053;-38
2023/12/07 04:24:40;;;;;;;5.00;3.35;;;;;;;16.19;46.86;102077.91;5030053;28;20045;-38
2023/12/07 04:27:07;;;;;;;5.00;3.80;;;;;;;16.23;46.57;102074.06;5030372;28;20332;-38
2023/12/07 04:29:33;;;;;;;5.30;3.53;;;;;;;16.26;46.20;102073.84;5031741;28;20076;-38
2023/12/07 04:32:00;;;;;;;4.82;3.25;;;;;;;16.30;46.88;102071.78;5031603;28;20456;-38
2023/12/07 04:34:26;;;;;;;4.38;3.47;;;;;;;16.34;46.08;102073.28;5036765;28;20095;-38
2023/12/07 04:36:53;;;;;;;4.55;3.53;;;;;;;16.36;46.54;102070.47;5031453;28;20060;-38
2023/12/07 04:39:19;;;;;;;4.82;3.28;;;;;;;16.35;46.86;102074.97;5035279;28;20085;-38
2023/12/07 04:41:46;;;;;;;5.20;3.58;;;;;;;16.35;46.39;102072.31;5036907;28;20164;-38
2023/12/07 04:44:13;;;;;;;5.18;4.03;;;;;;;16.34;46.07;102069.75;5033235;28;20524;-38
2023/12/07 04:46:39;;;;;;;4.55;3.00;;;;;;;16.33;46.15;102068.06;5038412;28;20100;-38
2023/12/07 04:49:06;;;;;;;5.35;3.70;;;;;;;16.31;46.49;102068.16;5036316;28;20429;-38
2023/12/07 04:51:33;;;;;;;4.38;3.30;;;;;;;16.29;46.27;102073.63;5039091;28;20079;-38
2023/12/07 04:54:00;;;;;;;4.45;3.35;;;;;;;16.28;46.45;102063.91;5031701;28;20131;-38
2023/12/07 04:56:41;;;;;;;5.32;3.10;;;;;;;16.27;45.89;102058.63;5032685;28;20622;-38
2023/12/07 04:59:09;;;;;;;4.13;2.97;;;;;;;16.25;45.92;102057.91;5031685;28;20056;-38
2023/12/07 05:01:36;;;;;;;4.50;3.45;;;;;;;16.25;45.97;102071.28;5035880;28;20061;-38
2023/12/07 05:04:04;;;;;;;5.18;3.40;;;;;;;16.21;46.13;102057.28;5028229;28;20053;-38
2023/12/07 05:06:31;;;;;;;4.72;3.22;;;;;;;16.21;46.94;102062.63;5029127;28;20053;-38
2023/12/07 05:08:58;;;;;;;3.88;3.13;;;;;;;16.24;46.48;102058.84;5032196;28;20085;-38
2023/12/07 05:11:25;;;;;;;4.10;2.85;;;;;;;16.27;46.13;102056.81;5027570;28;20050;-38
2023/12/07 05:13:51;;;;;;;4.13;3.33;;;;;;;16.34;46.18;102059.06;5030481;28;20041;-38
2023/12/07 05:16:18;;;;;;;5.57;3.65;;;;;;;16.42;46.50;102059.34;5032819;28;20045;-38
2023/12/07 05:18:45;;;;;;;5.03;3.72;;;;;;;16.50;46.50;102067.66;5033029;28;20049;-38
2023/12/07 05:21:11;;;;;;;4.72;3.35;;;;;;;16.59;45.05;102066.97;5031333;28;20069;-38
2023/12/07 05:23:38;;;;;;;4.78;3.50;;;;;;;16.67;45.18;102064.56;5028917;28;20056;-38
2023/12/07 05:26:07;;;;;;;4.88;3.45;;;;;;;16.72;45.30;102062.41;5032052;28;20049;-38
2023/12/07 05:28:35;;;;;;;4.38;3.60;;;;;;;16.77;45.18;102049.56;5032831;28;20613;-38
2023/12/07 05:31:02;;;;;;;6.20;3.92;;;;;;;16.82;45.39;102048.38;5029132;28;20474;-38
2023/12/07 05:33:29;;;;;;;6.72;4.28;;;;;;;16.83;44.82;102042.03;5035070;28;20099;-38
2023/12/07 05:35:56;;;;;;;5.78;3.70;;;;;;;16.83;45.16;102042.03;5032221;28;20050;-39
2023/12/07 05:38:22;;;;;;;6.05;4.10;;;;;;;16.80;44.75;102052.97;5025362;28;20385;-38
2023/12/07 05:40:49;;;;;;;5.05;3.97;;;;;;;16.75;45.49;102047.97;5027811;28;20077;-38
2023/12/07 05:43:16;;;;;;;5.85;4.55;;;;;;;16.72;45.09;102053.50;5024182;28;20045;-38
2023/12/07 05:45:45;;;;;;;5.88;4.10;;;;;;;16.67;44.83;102053.84;5026343;28;20076;-38
2023/12/07 05:48:11;;;;;;;6.68;4.72;;;;;;;16.62;44.98;102048.00;5025136;28;20132;-37
2023/12/07 05:50:39;;;;;;;6.72;4.72;;;;;;;16.58;44.96;102053.69;5027769;28;20048;-38
2023/12/07 05:53:06;;;;;;;6.88;4.32;;;;;;;16.53;45.51;102056.72;5023713;28;20069;-38
2023/12/07 05:55:33;;;;;;;5.80;4.10;;;;;;;16.48;45.28;102050.84;5026273;28;20060;-38
2023/12/07 05:58:00;;;;;;;6.32;4.28;;;;;;;16.44;44.98;102050.25;5032430;28;20045;-38
2023/12/07 06:00:27;;;;;;;6.43;4.88;;;;;;;16.40;45.26;102055.91;5028112;28;20049;-38
2023/12/07 06:02:53;;;;;;;6.68;4.72;;;;;;;16.36;45.42;102063.34;5029066;28;20452;-38
2023/12/07 06:05:21;;;;;;;6.35;4.43;;;;;;;16.32;45.11;102055.63;5031436;28;20053;-38
2023/12/07 06:07:47;;;;;;;8.07;5.43;;;;;;;16.28;44.98;102055.88;5025638;28;20129;-38
2023/12/07 06:10:14;;;;;;;6.72;4.75;;;;;;;16.26;45.77;102064.97;5020093;28;20425;-38
2023/12/07 06:12:41;;;;;;;6.82;4.93;;;;;;;16.22;45.58;102060.81;5024041;28;20052;-38
2023/12/07 06:15:09;;;;;;;5.93;4.70;;;;;;;16.19;45.41;102053.84;5022557;28;20133;-37
2023/12/07 06:17:36;;;;;;;5.47;4.50;;;;;;;16.17;45.68;102060.28;5029632;28;20049;-38
2023/12/07 06:20:03;;;;;;;7.45;5.40;;;;;;;16.14;45.93;102064.03;5025887;28;20045;-38
2023/12/07 06:22:30;;;;;;;6.75;5.10;;;;;;;16.12;44.76;102067.78;5025951;28;20077;-38
2023/12/07 06:24:57;;;;;;;7.57;5.60;;;;;;;16.08;45.21;102063.63;5021401;28;20050;-38
2023/12/07 06:27:24;;;;;;;7.00;5.45;;;;;;;16.06;45.40;102063.72;5029565;28;20057;-38
2023/12/07 06:29:51;;;;;;;6.03;4.68;;;;;;;16.02;45.73;102068.44;5021473;28;20046;-38
2023/12/07 06:32:17;;;;;;;7.22;5.47;;;;;;;16.01;45.17;102065.91;5031576;28;20073;-38
2023/12/07 06:34:44;;;;;;;5.72;4.85;;;;;;;15.94;45.31;102070.81;5028579;28;20499;-38
2023/12/07 06:37:10;;;;;;;6.88;5.57;;;;;;;15.89;44.64;102062.28;5033169;28;20453;-38
2023/12/07 06:39:37;;;;;;;7.40;5.68;;;;;;;15.83;45.47;102061.84;5029141;28;20050;-38
2023/12/07 06:42:04;;;;;;;6.88;5.28;;;;;;;15.84;45.79;102063.56;5021712;28;20483;-38
2023/12/07 06:44:30;;;;;;;6.93;5.13;;;;;;;15.88;45.95;102062.38;5026202;28;20053;-38
2023/12/07 06:46:57;;;;;;;6.53;5.05;;;;;;;15.93;44.93;102061.09;5030031;28;20076;-38
2023/12/07 06:49:24;;;;;;;9.18;6.15;;;;;;;16.01;44.90;102064.06;5023232;28;20089;-38
2023/12/07 06:52:00;;;;;;;6.63;5.43;;;;;;;16.10;45.45;102057.19;5022853;28;20045;-38
2023/12/07 06:54:27;;;;;;;6.85;5.45;;;;;;;16.17;44.85;102049.59;5023814;28;20071;-38
2023/12/07 06:56:53;;;;;;;7.85;5.97;;;;;;;16.22;45.27;102056.31;5021857;28;20061;-38
2023/12/07 06:59:20;;;;;;;7.60;5.60;;;;;;;16.27;44.82;102056.81;5026440;28;20384;-37
2023/12/07 07:01:47;;;;;;;7.05;5.18;;;;;;;16.32;44.16;102052.94;5031328;28;20079;-37
2023/12/07 07:04:13;;;;;;;7.63;5.68;;;;;;;16.33;45.39;102050.19;5029090;28;20373;-37
2023/12/07 07:06:41;;;;;;;8.02;6.00;;;;;;;16.33;44.83;102057.34;5030982;28;20045;-38
2023/12/07 07:09:07;;;;;;;7.60;5.82;;;;;;;16.32;44.91;102061.81;5028924;28;20400;-39
2023/12/07 07:11:34;;;;;;;7.70;5.95;;;;;;;16.30;44.16;102061.09;5028731;28;20404;-38
2023/12/07 07:14:01;;;;;;;8.07;6.13;;;;;;;16.31;44.74;102064.63;5024501;28;20088;-38
2023/12/07 07:16:28;;;;;;;7.65;6.13;;;;;;;16.36;44.45;102065.13;5022277;28;20100;-38
2023/12/07 07:18:54;;;;;;;7.47;5.78;;;;;;;16.40;44.31;102058.59;5023836;28;20152;-38
2023/12/07 07:21:21;;;;;;;7.72;6.53;;;;;;;16.47;43.92;102068.72;5025364;28;20053;-38
2023/12/07 07:23:48;;;;;;;8.98;6.80;;;;;;;16.54;43.65;102064.63;5027643;28;20049;-38
2023/12/07 07:26:16;;;;;;;8.80;6.53;;;;;;;16.63;43.48;102064.91;5023063;28;20135;-38
2023/12/07 07:28:43;;;;;;;8.18;6.35;;;;;;;16.71;43.73;102071.41;5029045;28;20654;-38
2023/12/07 07:31:11;;;;;;;8.50;6.15;;;;;;;16.78;43.16;102078.03;5029823;28;20045;-38
2023/12/07 07:33:37;;;;;;;7.93;6.40;;;;;;;16.85;43.47;102062.38;5028438;28;20045;-38
2023/12/07 07:36:04;;;;;;;7.18;5.97;;;;;;;16.94;43.65;102074.22;5029265;28;20346;-38
2023/12/07 07:38:31;;;;;;;9.07;6.75;;;;;;;17.03;43.96;102070.81;5030824;28;20057;-38
2023/12/07 07:40:57;;;;;;;7.97;6.05;;;;;;;17.10;43.63;102065.88;5020621;28;20111;-38
2023/12/07 07:43:24;;;;;;;8.90;6.55;;;;;;;17.16;43.00;102065.38;5021150;28;20589;-38
2023/12/07 07:45:51;;;;;;;9.48;6.78;;;;;;;17.22;42.91;102065.75;5023818;28;20053;-38
2023/12/07 07:48:17;;;;;;;8.00;6.22;;;;;;;17.28;43.15;102059.06;5023388;28;20057;-38
2023/12/07 07:50:44;;;;;;;9.25;6.47;;;;;;;17.34;42.79;102069.31;5020529;28;20888;-38
2023/12/07 07:53:11;;;;;;;9.77;7.25;;;;;;;17.40;43.21;102054.56;5024290;28;20053;-38
2023/12/07 07:55:37;;;;;;;9.02;6.53;;;;;;;17.44;43.06;102056.91;5023923;28;20460;-38
2023/12/07 07:58:04;;;;;;;11.50;7.25;;;;;;;17.48;42.56;102069.09;5025488;28;20059;-38
2023/12/07 08:00:32;;;;;;;9.00;7.15;;;;;;;17.52;43.01;102067.03;5030612;28;20057;-38
2023/12/07 08:03:00;;;;;;;8.45;6.55;;;;;;;17.55;43.24;102064.09;5032167;28;20344;-38
2023/12/07 08:05:26;;;;;;;8.60;6.30;;;;;;;17.55;42.75;102066.78;5032982;28;20379;-38
2023/12/07 08:07:53;;;;;;;8.25;6.63;;;;;;;17.54;42.45;102062.41;5030214;28;20053;-38
2023/12/07 08:10:20;;;;;;;8.70;6.35;;;;;;;17.52;42.73;102067.03;5027102;28;20192;-38
2023/12/07 08:12:47;;;;;;;8.40;6.43;;;;;;;17.47;42.70;102072.75;5030262;28;20458;-38
2023/12/07 08:15:13;;;;;;;7.68;6.30;;;;;;;17.41;43.12;102081.28;5030894;28;20053;-38
2023/12/07 08:17:41;;;;;;;8.23;6.28;;;;;;;17.34;42.63;102076.50;5032086;28;20053;-38
2023/12/07 08:20:15;;;;;;;7.22;5.97;;;;;;;17.25;43.25;102070.91;5030380;28;20440;-38
2023/12/07 08:22:43;;;;;;;8.80;6.53;;;;;;;17.18;43.01;102068.81;5030853;28;20037;-38
2023/12/07 08:25:11;;;;;;;9.10;6.43;;;;;;;17.10;42.78;102065.88;5028538;28;20329;-38
2023/12/07 08:27:38;;;;;;;8.70;6.55;;;;;;;17.03;43.33;102060.09;5024062;28;20066;-38
2023/12/07 08:30:06;;;;;;;7.95;6.60;;;;;;;16.96;43.64;102065.06;5032976;28;20132;-38
2023/12/07 08:32:32;;;;;;;8.25;6.28;;;;;;;16.91;43.50;102063.72;5025073;28;20042;-38
2023/12/07 08:34:59;;;;;;;8.07;6.35;;;;;;;16.84;43.27;102060.66;5025458;28;20045;-38
2023/12/07 08:37:26;;;;;;;6.68;5.97;;;;;;;16.80;43.58;102061.00;5023454;28;20093;-38
2023/12/07 08:39:53;;;;;;;8.68;6.38;;;;;;;16.73;43.42;102058.81;5027147;28;20168;-38
2023/12/07 08:42:20;;;;;;;8.38;6.60;;;;;;;16.70;43.39;102063.50;5028865;28;20049;-38
2023/12/07 08:44:46;;;;;;;7.35;6.28;;;;;;;16.65;43.64;102065.66;5028779;28;20096;-38
2023/12/07 08:47:13;;;;;;;7.45;6.00;;;;;;;16.59;43.32;102076.81;5028934;28;20394;-38
2023/12/07 08:49:39;;;;;;;7.55;5.90;;;;;;;16.56;43.49;102064.50;5028390;28;20053;-38
2023/12/07 08:52:06;;;;;;;8.00;5.82;;;;;;;16.53;44.02;102060.25;5027288;28;20085;-38
2023/12/07 08:54:52;;;;;;;8.40;5.97;;;;;;;16.55;43.49;102057.44;5024020;28;20054;-38
2023/12/07 08:57:19;;;;;;;7.90;6.13;;;;;;;16.58;43.87;102062.59;5023208;28;20081;-38
2023/12/07 08:59:46;;;;;;;7.38;5.53;;;;;;;16.66;43.86;102054.84;5025298;28;20049;-38
2023/12/07 09:02:12;;;;;;;7.00;5.65;;;;;;;16.73;44.02;102042.72;5029217;28;20457;-38
2023/12/07 09:04:40;;;;;;;6.70;5.55;;;;;;;16.82;43.14;102041.19;5024827;28;20497;-38
2023/12/07 09:07:07;;;;;;;5.78;4.78;;;;;;;16.91;42.84;102042.31;5026853;28;20056;-38
2023/12/07 09:09:33;;;;;;;6.65;5.30;;;;;;;17.00;43.71;102041.59;5030546;28;20045;-38
2023/12/07 09:12:00;;;;;;;5.90;4.72;;;;;;;17.08;43.50;102047.22;5026923;28;20095;-38
2023/12/07 09:14:27;;;;;;;5.55;4.50;;;;;;;17.15;43.29;102052.97;5030088;28;20401;-39
2023/12/07 09:16:54;;;;;;;5.22;4.47;;;;;;;17.24;43.23;102052.25;5023602;28;20124;-38
2023/12/07 09:19:21;;;;;;;5.68;4.60;;;;;;;17.31;42.96;102047.25;5028184;28;20049;-38
2023/12/07 09:21:47;;;;;;;6.07;4.72;;;;;;;17.39;42.90;102045.69;5030349;28;20065;-38
2023/12/07 09:24:14;;;;;;;5.97;4.65;;;;;;;17.44;42.87;102048.84;5023592;28;20100;-38
2023/12/07 09:26:41;;;;;;;5.82;4.88;;;;;;;17.49;42.57;102048.53;5021353;28;20272;-38
2023/12/07 09:29:08;;;;;;;5.35;4.25;;;;;;;17.54;42.27;102051.69;5021805;28;20327;-38
2023/12/07 09:31:35;;;;;;;4.97;4.15;;;;;;;17.55;42.86;102042.66;5024948;28;20046;-38
2023/12/07 09:34:02;;;;;;;4.90;4.22;;;;;;;17.56;42.08;102051.56;5024294;28;20056;-38
2023/12/07 09:36:38;;;;;;;8.52;4.30;;;;;;;17.54;41.95;102053.50;5029400;28;20399;-38
2023/12/07 09:39:05;;;;;;;8.02;4.53;;;;;;;17.49;42.33;102052.06;5033116;28;20550;-38
2023/12/07 09:41:33;;;;;;;6.35;4.38;;;;;;;17.43;42.05;102043.63;5032150;28;20049;-38
2023/12/07 09:44:00;;;;;;;5.88;4.40;;;;;;;17.37;42.32;102039.63;5029739;28;20319;-38
2023/12/07 09:46:29;;;;;;;4.97;4.03;;;;;;;17.29;42.50;102034.00;5029077;28;20067;-38
2023/12/07 09:48:56;;;;;;;5.03;4.05;;;;;;;17.23;42.48;102029.09;5024609;28;20062;-38
2023/12/07 09:51:24;;;;;;;8.30;4.53;;;;;;;17.14;42.82;102036.03;5028701;28;20133;-38
2023/12/07 09:53:52;;;;;;;6.93;4.68;;;;;;;17.08;42.63;102028.47;5030518;28;20067;-38
2023/12/07 09:56:20;;;;;;;7.72;4.28;;;;;;;17.02;42.74;102028.94;5023520;28;20084;-38
2023/12/07 09:58:47;;;;;;;6.80;4.28;;;;;;;16.95;42.84;102019.66;5027740;28;20045;-38
2023/12/07 10:01:14;;;;;;;8.45;4.70;;;;;;;16.90;42.96;102029.88;5025964;28;20128;-38
2023/12/07 10:03:42;;;;;;;6.28;4.28;;;;;;;16.84;43.24;102027.66;5022454;28;20053;-38
2023/12/07 10:06:09;;;;;;;7.65;4.32;;;;;;;16.78;43.00;102013.78;5028240;28;20084;-38
2023/12/07 10:08:36;;;;;;;7.38;4.20;;;;;;;16.74;42.88;102016.81;5027734;28;20062;-38
2023/12/07 10:11:06;;;;;;;5.38;4.03;;;;;;;16.68;42.66;102023.47;5028616;28;20050;-38
2023/12/07 10:13:34;;;;;;;6.10;4.68;;;;;;;16.63;43.21;102014.06;5024055;28;20042;-38
2023/12/07 10:16:09;;;;;;;9.05;4.03;;;;;;;16.58;42.96;102014.41;5028152;28;20084;-38
2023/12/07 10:18:36;;;;;;;7.30;4.78;;;;;;;16.55;42.78;102014.63;5027355;28;20103;-38
2023/12/07 10:21:08;;;;;;;4.93;4.13;;;;;;;16.51;43.56;102005.13;5022624;28;20612;-39
2023/12/07 10:23:37;;;;;;;4.55;4.07;;;;;;;16.47;43.22;101992.94;5025671;28;20049;-38
2023/12/07 10:26:07;;;;;;;5.65;4.30;;;;;;;16.43;43.27;101988.78;5027612;28;20050;-38
2023/12/07 10:28:35;;;;;;;7.60;4.70;;;;;;;16.41;43.38;101988.06;5022466;28;20053;-38
2023/12/07 10:31:02;;;;;;;4.88;4.13;;;;;;;16.37;42.91;101975.88;5028247;28;20057;-38
2023/12/07 10:33:29;;;;;;;6.50;4.10;;;;;;;16.35;43.57;101983.16;5028071;28;20044;-38
2023/12/07 10:35:56;;;;;;;5.38;3.70;;;;;;;16.31;43.26;101982.53;5024268;28;20049;-38
2023/12/07 10:38:22;;;;;;;5.63;4.50;;;;;;;16.27;42.95;101968.53;5023545;28;20057;-38
2023/12/07 10:41:04;;;;;;;4.82;3.90;;;;;;;16.25;43.55;101974.97;5025492;28;20072;-38
2023/12/07 10:43:35;;;;;;;5.32;3.90;;;;;;;16.28;43.55;101978.28;5026384;28;20046;-38
2023/12/07 10:46:04;;;;;;;6.00;3.67;;;;;;;16.32;42.90;101970.00;5028085;28;20086;-38
2023/12/07 10:48:32;;;;;;;5.68;3.67;;;;;;;16.36;43.61;101964.34;5023369;28;20235;-38
2023/12/07 10:51:02;;;;;;;5.13;4.10;;;;;;;16.40;43.46;101960.47;5021349;28;20080;-38
2023/12/07 10:53:37;;;;;;;5.18;3.47;;;;;;;16.46;43.00;101965.34;5027743;28;20049;-39
2023/12/07 10:56:05;;;;;;;5.38;4.00;;;;;;;16.50;43.44;101955.25;5031121;28;20045;-39
2023/12/07 10:58:35;;;;;;;4.05;3.33;;;;;;;16.53;42.81;101950.53;5025246;28;20045;-38
2023/12/07 11:01:03;;;;;;;4.60;3.42;;;;;;;16.56;43.39;101952.09;5029154;28;20104;-38
2023/12/07 11:03:31;;;;;;;4.80;4.10;;;;;;;16.62;43.19;101940.09;5030760;28;20060;-38
2023/12/07 11:05:58;;;;;;;4.63;3.55;;;;;;;16.70;42.91;101937.69;5023180;28;20377;-38
2023/12/07 11:08:46;;;;;;;4.80;3.38;;;;;;;16.77;42.75;101931.75;5024892;28;20049;-39
2023/12/07 11:11:17;;;;;;;5.28;3.63;;;;;;;16.86;42.31;101924.84;5026256;28;20060;-38
2023/12/07 11:13:53;;;;;;;5.47;3.85;;;;;;;16.94;42.49;101916.22;5026721;28;20057;-38
2023/12/07 11:16:36;;;;;;;4.85;3.47;;;;;;;17.04;42.54;101925.19;5024540;28;20056;-38
2023/12/07 11:19:06;;;;;;;4.90;3.53;;;;;;;17.13;42.55;101919.16;5027800;28;20037;-38
2023/12/07 11:21:38;;;;;;;4.72;3.45;;;;;;;17.21;42.43;101913.19;5030510;28;20052;-38
2023/12/07 11:24:06;;;;;;;5.45;3.65;;;;;;;17.29;42.32;101910.75;5026146;28;20057;-38
2023/12/07 11:26:32;;;;;;;4.03;3.30;;;;;;;17.36;42.30;101903.88;5026061;28;20065;-38